Glenbeulah, Wisconsin
Current Conditions -  °F | °C
As of 9:53 PM on Sunday 23 Nov 2014 (Local Time) from KSBM Reporting Station
Light Rain Light Rain  
Wind Chill: 44°   Ceiling: 300
Heat Index: 44°   Visibility: 0.5mi
Dew Point: 42°   Wind: 0mph
Humidity: 93%   Direction: NA
Pressure: 29.21"   Gusts: NA
Location:  43.8°N, 88.05°W
Report Text: KSBM 240353Z AUTO 00000KT 1/2SM -RA FG VV003 07/06 A2921 RMK AO2 SLP893 P0007 T00670056
Loading
Personal Weather Stations






























Interactive Weather Map New forecast layout! Learn more

10-Day Weather Forecast

Advertisements
Track Severe Weather on mobile